createdAt,value
2023-03-22T00:03:59.712Z,5.60
2023-03-22T00:09:01.098Z,6.37
2023-03-22T00:14:02.101Z,5.80
2023-03-22T00:19:02.900Z,6.68
2023-03-22T00:24:03.907Z,6.10
2023-03-22T00:29:04.872Z,6.07
2023-03-22T00:34:05.752Z,6.82
2023-03-22T00:39:06.644Z,6.28
2023-03-22T00:44:07.973Z,6.60
2023-03-22T00:49:08.965Z,6.03
2023-03-22T00:54:09.805Z,6.22
2023-03-22T00:59:11.949Z,6.85
2023-03-22T01:04:17.184Z,7.27
2023-03-22T01:09:23.086Z,6.97
2023-03-22T01:14:25.353Z,6.70
2023-03-22T01:19:26.862Z,6.75
2023-03-22T01:24:27.920Z,6.47
2023-03-22T01:29:30.482Z,6.82
2023-03-22T01:34:31.284Z,7.00
2023-03-22T01:39:32.436Z,6.65
2023-03-22T01:44:35.986Z,7.15
2023-03-22T01:49:39.425Z,7.72
2023-03-22T01:59:59.912Z,6.87
2023-03-22T02:05:22.524Z,6.47
2023-03-22T02:10:26.217Z,7.80
2023-03-22T02:16:15.553Z,6.85
2023-03-22T02:23:42.059Z,7.25
2023-03-22T02:29:48.101Z,7.35
2023-03-22T02:35:49.655Z,6.68
2023-03-22T02:41:32.975Z,7.45
2023-03-22T02:46:47.349Z,7.90
2023-03-22T02:52:07.238Z,6.80
2023-03-22T02:57:35.830Z,6.22
2023-03-22T03:02:41.322Z,7.82
2023-03-22T03:07:51.643Z,7.43
2023-03-22T03:12:53.245Z,6.75
2023-03-22T03:18:10.741Z,7.50
2023-03-22T03:24:11.266Z,7.62
2023-03-22T03:30:53.800Z,7.72
2023-03-22T03:36:02.166Z,7.68
2023-03-22T03:41:08.243Z,8.57
2023-03-22T03:46:09.777Z,8.60
2023-03-22T03:51:10.580Z,8.52
2023-03-22T03:56:11.583Z,8.40
2023-03-22T04:01:18.901Z,9.13
2023-03-22T04:06:26.390Z,9.10
2023-03-22T04:11:29.967Z,9.95
2023-03-22T04:16:33.483Z,8.35
2023-03-22T04:21:34.573Z,8.85
2023-03-22T04:26:36.162Z,9.18
2023-03-22T04:31:55.583Z,10.00
2023-03-22T04:43:18.960Z,9.25
2023-03-22T04:48:27.201Z,8.68
2023-03-22T04:53:29.279Z,9.23
2023-03-22T04:58:37.962Z,8.55
2023-03-22T05:03:39.454Z,9.15
2023-03-22T05:08:41.308Z,8.93
2023-03-22T05:13:42.762Z,8.13
2023-03-22T05:18:44.692Z,8.77
2023-03-22T05:23:46.325Z,9.10
2023-03-22T05:28:48.319Z,8.80
2023-03-22T05:33:54.695Z,9.55
2023-03-22T05:38:57.701Z,10.65
2023-03-22T05:43:59.548Z,10.05
2023-03-22T05:49:01.113Z,10.93
2023-03-22T05:54:02.227Z,10.80
2023-03-22T05:59:10.219Z,11.77
2023-03-22T06:04:11.184Z,10.95
2023-03-22T06:09:23.457Z,12.32
2023-03-22T06:14:25.542Z,11.63
2023-03-22T06:19:54.113Z,12.88
2023-03-22T06:24:56.208Z,15.93
2023-03-22T06:30:07.126Z,16.77
2023-03-22T06:35:15.297Z,16.52
2023-03-22T06:40:16.639Z,18.45
2023-03-22T06:45:21.004Z,17.87
2023-03-22T06:50:22.969Z,17.55
2023-03-22T06:56:54.875Z,15.65
2023-03-22T07:01:56.169Z,16.00
2023-03-22T07:06:57.320Z,15.07
2023-03-22T07:12:00.177Z,15.90
2023-03-22T07:17:01.610Z,16.87
2023-03-22T07:22:03.222Z,17.02
2023-03-22T07:27:07.064Z,15.35
2023-03-22T07:32:08.296Z,14.82
2023-03-22T07:37:26.509Z,14.13
2023-03-22T07:42:27.537Z,11.12
2023-03-22T07:47:44.572Z,9.60
2023-03-22T07:53:42.781Z,8.63
2023-03-22T07:58:43.727Z,6.60
2023-03-22T08:03:44.807Z,5.95
2023-03-22T08:08:56.808Z,4.30
2023-03-22T08:13:57.826Z,3.42
2023-03-22T08:18:59.820Z,2.65
2023-03-22T08:24:02.138Z,2.03
2023-03-22T08:29:23.034Z,1.50
2023-03-22T08:34:23.999Z,1.55
2023-03-22T08:39:26.239Z,1.83
2023-03-22T08:44:41.333Z,1.02
2023-03-22T08:49:42.485Z,1.20
2023-03-22T08:54:52.710Z,1.00
2023-03-22T09:01:45.701Z,1.08
2023-03-22T09:06:46.813Z,1.25
2023-03-22T09:11:48.199Z,1.10
2023-03-22T09:16:49.114Z,1.87
2023-03-22T09:21:50.671Z,1.25
2023-03-22T09:27:01.434Z,1.30
2023-03-22T09:32:02.731Z,0.88
2023-03-22T09:37:06.364Z,1.30
2023-03-22T09:42:35.835Z,1.15
2023-03-22T09:47:45.121Z,1.08
2023-03-22T09:52:47.568Z,1.37
2023-03-22T09:58:54.144Z,1.00
2023-03-22T10:04:21.406Z,1.30
2023-03-22T10:09:32.780Z,1.10
2023-03-22T10:14:39.585Z,1.20
2023-03-22T10:19:54.153Z,1.25
2023-03-22T10:24:56.313Z,1.12
2023-03-22T10:30:07.766Z,1.23
2023-03-22T10:35:15.691Z,1.00
2023-03-22T10:40:26.334Z,1.20
2023-03-22T10:45:28.212Z,1.17
2023-03-22T10:50:33.649Z,1.20
2023-03-22T10:55:43.397Z,1.15
2023-03-22T11:00:58.984Z,1.10
2023-03-22T11:06:12.164Z,1.30
2023-03-22T11:11:25.925Z,1.20
2023-03-22T11:16:28.460Z,0.90
2023-03-22T11:21:32.464Z,0.88
2023-03-22T11:26:38.966Z,0.80
2023-03-22T11:31:57.523Z,0.88
2023-03-22T11:37:07.684Z,0.80
2023-03-22T11:42:18.708Z,1.30
2023-03-22T11:47:19.838Z,1.00
2023-03-22T11:52:26.709Z,0.70
2023-03-22T11:57:30.699Z,0.82
2023-03-22T12:02:41.129Z,0.77
2023-03-22T12:07:42.693Z,0.98
2023-03-22T12:12:58.968Z,1.30
2023-03-22T12:18:08.374Z,1.00
2023-03-22T12:23:19.909Z,1.30
2023-03-22T12:28:27.568Z,0.80
2023-03-22T12:33:32.421Z,1.08
2023-03-22T12:38:50.807Z,0.77
2023-03-22T12:43:54.978Z,1.05
2023-03-22T12:49:04.380Z,0.73
2023-03-22T12:54:06.140Z,0.70
2023-03-22T12:59:19.482Z,1.25
2023-03-22T13:07:54.029Z,0.82
2023-03-22T13:14:58.133Z,1.12
2023-03-22T13:20:23.032Z,0.80
2023-03-22T13:25:29.630Z,0.80
2023-03-22T13:30:49.139Z,0.90
2023-03-22T13:35:58.456Z,0.90
2023-03-22T13:41:27.282Z,0.93
2023-03-22T13:46:51.338Z,0.82
2023-03-22T13:51:53.631Z,0.93
2023-03-22T13:57:01.161Z,0.80
2023-03-22T14:02:39.141Z,1.50
2023-03-22T14:07:51.596Z,1.25
2023-03-22T14:14:33.103Z,0.90
2023-03-22T14:19:35.132Z,1.05
